createdAt,value
2023-01-10T01:57:13.066Z,56.30
2023-01-10T01:59:44.746Z,53.24
2023-01-10T02:02:19.653Z,52.56
2023-01-10T02:05:01.607Z,52.23
2023-01-10T02:07:33.857Z,52.52
2023-01-10T02:10:03.228Z,52.48
2023-01-10T02:12:30.728Z,52.33
2023-01-10T02:22:11.668Z,52.28
2023-01-10T02:24:50.872Z,52.23
2023-01-10T02:27:27.442Z,52.27
2023-01-10T02:30:03.693Z,52.10
2023-01-10T02:32:56.968Z,52.15
2023-01-10T02:36:13.059Z,52.34
2023-01-10T02:38:58.705Z,52.38
2023-01-10T02:41:50.720Z,52.46
2023-01-10T02:44:46.329Z,52.72
2023-01-10T02:47:13.420Z,52.73
2023-01-10T02:49:50.921Z,52.77
2023-01-10T02:52:24.571Z,52.97
2023-01-10T02:54:51.967Z,52.90
2023-01-10T02:57:28.901Z,52.84
2023-01-10T02:59:55.843Z,52.97
2023-01-10T03:02:45.581Z,53.00
2023-01-10T03:05:39.231Z,53.18
2023-01-10T03:08:24.543Z,53.35
2023-01-10T03:10:55.677Z,53.35
2023-01-10T03:13:44.278Z,53.47
2023-01-10T03:16:14.101Z,53.29
2023-01-10T03:18:50.910Z,53.39
2023-01-10T03:21:17.647Z,53.35
2023-01-10T03:23:44.457Z,53.52
2023-01-10T03:26:11.231Z,53.29
2023-01-10T03:28:45.845Z,53.36
2023-01-10T03:31:19.134Z,53.53
2023-01-10T03:33:45.958Z,53.42
2023-01-10T03:36:32.103Z,53.50
2023-01-10T03:39:11.409Z,53.59
2023-01-10T03:41:42.911Z,53.56
2023-01-10T03:44:54.699Z,53.37
2023-01-10T03:47:28.134Z,53.69
2023-01-10T03:49:56.364Z,53.79
2023-01-10T03:52:23.093Z,53.91
2023-01-10T03:54:49.775Z,54.34
2023-01-10T03:57:22.029Z,54.46
2023-01-10T03:59:53.544Z,54.69
2023-01-10T04:02:20.531Z,54.68
2023-01-10T04:04:47.233Z,54.95
2023-01-10T04:07:13.964Z,55.21
2023-01-10T04:09:40.631Z,55.75
2023-01-10T04:12:07.515Z,56.03
2023-01-10T04:14:34.283Z,56.45
2023-01-10T04:17:01.060Z,56.69
2023-01-10T04:19:28.018Z,56.76
2023-01-10T04:21:54.692Z,56.90
2023-01-10T04:24:21.496Z,56.90
2023-01-10T04:26:48.386Z,56.94
2023-01-10T04:29:15.199Z,56.80
2023-01-10T04:31:41.969Z,56.82
2023-01-10T04:34:08.989Z,56.81
2023-01-10T04:36:36.524Z,56.54
2023-01-10T04:39:04.075Z,56.52
2023-01-10T04:41:30.855Z,56.33
2023-01-10T04:43:57.598Z,56.16
2023-01-10T04:46:24.350Z,56.04
2023-01-10T04:48:51.143Z,56.15
2023-01-10T04:51:18.019Z,56.48
2023-01-10T04:53:44.712Z,56.50
2023-01-10T04:56:18.299Z,56.41
2023-01-10T04:58:45.345Z,56.21
2023-01-10T05:01:20.342Z,56.09
2023-01-10T05:03:48.975Z,56.10
2023-01-10T05:06:16.106Z,55.94
2023-01-10T05:08:43.046Z,55.94
2023-01-10T05:11:09.753Z,56.41
2023-01-10T05:13:36.521Z,56.52
2023-01-10T05:16:03.471Z,56.69
2023-01-10T05:18:30.478Z,57.14
2023-01-10T05:21:00.657Z,57.51
2023-01-10T05:23:28.749Z,57.97
2023-01-10T05:25:55.597Z,58.41
2023-01-10T05:28:22.292Z,58.67
2023-01-10T05:30:49.045Z,58.69
2023-01-10T05:33:15.789Z,58.90
2023-01-10T05:35:42.449Z,58.91
2023-01-10T05:38:09.249Z,59.01
2023-01-10T05:40:35.956Z,59.09
2023-01-10T05:43:02.675Z,59.19
2023-01-10T05:45:29.355Z,59.25
2023-01-10T05:47:56.128Z,59.31
2023-01-10T05:50:22.839Z,59.47
2023-01-10T05:52:49.571Z,59.77
2023-01-10T05:55:16.371Z,60.06
2023-01-10T05:57:43.033Z,60.62
2023-01-10T06:00:10.575Z,60.95
2023-01-10T06:02:40.056Z,61.50
2023-01-10T06:05:07.172Z,61.74
2023-01-10T06:07:33.841Z,62.07
2023-01-10T06:10:00.552Z,62.34
2023-01-10T06:12:27.296Z,62.70
2023-01-10T06:14:54.038Z,62.98
2023-01-10T06:17:20.748Z,63.07
2023-01-10T06:19:47.541Z,63.30
2023-01-10T06:22:32.811Z,63.53
2023-01-10T06:25:02.221Z,63.66
2023-01-10T06:27:29.155Z,63.86
2023-01-10T06:29:56.798Z,64.12
2023-01-10T06:32:23.490Z,64.16
2023-01-10T06:34:50.242Z,64.03
2023-01-10T06:37:19.412Z,64.05
2023-01-10T06:39:47.060Z,63.89
2023-01-10T06:42:13.814Z,63.85
2023-01-10T06:44:40.576Z,63.80
2023-01-10T06:47:07.364Z,64.05
2023-01-10T06:49:34.138Z,64.22
2023-01-10T06:52:00.884Z,64.29
2023-01-10T06:54:27.579Z,64.46
2023-01-10T06:56:54.265Z,64.25
2023-01-10T06:59:21.037Z,64.16
2023-01-10T07:01:47.966Z,64.43
2023-01-10T07:04:14.800Z,64.43
2023-01-10T07:06:41.696Z,64.41
2023-01-10T07:09:08.527Z,64.25
2023-01-10T07:11:35.595Z,63.99
2023-01-10T07:14:02.338Z,64.00
2023-01-10T07:16:29.165Z,64.21
2023-01-10T07:18:56.096Z,64.13
2023-01-10T07:21:22.856Z,63.89
2023-01-10T07:23:52.670Z,63.77
2023-01-10T07:26:19.638Z,63.68
2023-01-10T07:28:50.988Z,63.62
2023-01-10T07:31:21.110Z,63.61
2023-01-10T07:33:47.913Z,63.62
2023-01-10T07:36:14.699Z,63.52
2023-01-10T07:38:41.528Z,63.79
2023-01-10T07:41:08.439Z,64.01
2023-01-10T14:22:31.600Z,57.07
2023-01-10T14:24:59.909Z,53.27
2023-01-10T14:27:48.002Z,52.40
2023-01-10T14:30:20.988Z,51.63
2023-01-10T14:32:50.536Z,51.30
2023-01-10T14:35:19.501Z,50.90
2023-01-10T14:37:54.895Z,50.31
2023-01-10T14:40:54.050Z,50.15
2023-01-10T14:43:24.883Z,49.96
2023-01-10T14:46:03.620Z,49.42
2023-01-10T14:48:32.832Z,49.13
2023-01-10T14:51:12.487Z,49.09
2023-01-10T14:53:39.294Z,48.74
2023-01-10T14:56:24.169Z,48.49
2023-01-10T14:58:51.131Z,47.97
2023-01-10T15:01:22.812Z,47.82
2023-01-10T15:03:50.973Z,47.79
2023-01-10T15:06:17.569Z,47.61
2023-01-10T15:08:45.039Z,47.36
2023-01-10T15:11:13.479Z,46.97
2023-01-10T15:13:53.245Z,46.86
2023-01-10T15:18:50.324Z,46.42
2023-01-10T15:21:20.675Z,46.52
2023-01-10T15:23:47.798Z,46.43
2023-01-10T15:26:24.774Z,45.95
2023-01-10T15:29:14.373Z,45.85
2023-01-10T15:31:41.168Z,45.86
2023-01-10T15:34:25.453Z,45.69
2023-01-10T15:36:56.994Z,45.64
2023-01-10T15:39:32.462Z,45.66
2023-01-10T15:42:01.863Z,45.58
2023-01-10T15:44:46.201Z,45.44
2023-01-10T15:47:39.897Z,45.49
2023-01-10T15:50:29.369Z,45.77
2023-01-10T15:53:04.703Z,46.16
2023-01-10T15:55:48.486Z,46.58
2023-01-10T15:58:28.558Z,47.43
2023-01-10T16:00:56.374Z,48.16
2023-01-10T16:03:25.781Z,48.74
2023-01-10T16:05:58.343Z,49.06
